Time;durP1;ratioP1;P1;durP2;ratioP2;P2;SDS_P1;SDS_P2;PMS_P1;PMS_P2;Temp;Humidity;BMP_temperature;BMP_pressure;BME280_temperature;BME280_humidity;BME280_pressure;Samples;Min_cycle;Max_cycle;Signal;HPM_P1;HPM_P2
2022/11/10 00:01:10;;;;;;;16.75;2.35;;;10.80;99.90;;;;;;5003711;28;20029;-66
2022/11/10 00:03:57;;;;;;;11.80;1.75;;;10.80;99.90;;;;;;5017841;28;20061;-68
2022/11/10 00:06:46;;;;;;;7.70;1.10;;;10.90;99.90;;;;;;5019279;28;20053;-72
2022/11/10 00:09:32;;;;;;;7.60;1.17;;;10.90;99.90;;;;;;5013790;28;20482;-74
2022/11/10 00:12:22;;;;;;;9.30;1.17;;;10.80;99.90;;;;;;5021024;28;20485;-59
2022/11/10 00:18:14;;;;;;;6.03;1.52;;;10.90;99.90;;;;;;5028005;28;20060;-62
2022/11/10 00:21:06;;;;;;;6.75;1.52;;;10.90;99.90;;;;;;5019199;28;20070;-72
2022/11/10 00:23:53;;;;;;;17.08;2.22;;;10.90;99.90;;;;;;5017222;28;20042;-68
2022/11/10 00:26:39;;;;;;;7.55;1.10;;;10.80;99.90;;;;;;5012137;28;20057;-72
2022/11/10 00:29:25;;;;;;;11.13;1.85;;;10.90;99.90;;;;;;5009489;28;20038;-66
2022/11/10 00:32:18;;;;;;;10.07;3.03;;;10.90;99.90;;;;;;5008312;28;20799;-70
2022/11/10 00:35:04;;;;;;;11.75;1.65;;;10.80;99.90;;;;;;5007001;28;20065;-70
2022/11/10 00:37:50;;;;;;;13.02;1.83;;;10.80;99.90;;;;;;5015518;28;20049;-73
2022/11/10 00:40:37;;;;;;;12.50;2.83;;;10.90;99.90;;;;;;5027808;28;20052;-63
2022/11/10 00:43:23;;;;;;;11.27;2.13;;;10.90;99.90;;;;;;5020966;28;20576;-65
2022/11/10 00:46:12;;;;;;;16.90;1.95;;;10.90;99.90;;;;;;5027088;28;20488;-61
2022/11/10 00:48:58;;;;;;;10.77;1.60;;;10.90;99.90;;;;;;5026882;28;20050;-60
2022/11/10 00:51:44;;;;;;;7.65;1.40;;;10.90;99.90;;;;;;5020920;28;20053;-60
2022/11/10 00:54:31;;;;;;;6.50;1.15;;;10.90;99.90;;;;;;5022860;28;20528;-73
2022/11/10 00:57:17;;;;;;;10.13;1.08;;;11.00;99.90;;;;;;5009299;28;20046;-60
2022/11/10 01:00:04;;;;;;;9.07;0.88;;;11.00;99.90;;;;;;5015187;28;20048;-60
2022/11/10 01:02:50;;;;;;;8.45;1.52;;;11.10;99.90;;;;;;5026582;28;20045;-60
2022/11/10 01:05:37;;;;;;;10.73;1.45;;;11.10;99.90;;;;;;5026908;28;20389;-63
2022/11/10 01:08:24;;;;;;;8.80;1.20;;;11.10;99.90;;;;;;5016483;28;20041;-61
2022/11/10 01:11:14;;;;;;;11.15;1.33;;;11.20;99.90;;;;;;5007422;28;20042;-60
2022/11/10 01:14:01;;;;;;;13.38;1.98;;;11.20;99.90;;;;;;5012659;28;20056;-61
2022/11/10 01:16:47;;;;;;;6.57;1.30;;;11.10;99.90;;;;;;5026810;28;20500;-60
2022/11/10 01:19:33;;;;;;;13.20;1.90;;;11.10;99.90;;;;;;5026624;28;20056;-60
2022/11/10 01:22:19;;;;;;;6.43;0.82;;;11.10;99.90;;;;;;5016459;28;20049;-64
2022/11/10 01:25:07;;;;;;;9.23;1.30;;;11.10;99.90;;;;;;5006921;28;20046;-62
2022/11/10 01:27:53;;;;;;;10.10;1.45;;;11.10;99.90;;;;;;5009521;28;20066;-63
2022/11/10 01:30:39;;;;;;;5.47;1.60;;;11.00;99.90;;;;;;5020047;28;20046;-61
2022/11/10 01:33:26;;;;;;;11.70;1.77;;;11.00;99.90;;;;;;5013149;28;20041;-61
2022/11/10 01:36:13;;;;;;;8.43;0.90;;;11.00;99.90;;;;;;5009386;28;20524;-66
2022/11/10 01:39:00;;;;;;;6.35;1.23;;;11.00;99.90;;;;;;5018949;28;20056;-61
2022/11/10 01:41:47;;;;;;;9.25;1.23;;;11.00;99.90;;;;;;5026453;28;20034;-64
2022/11/10 01:44:34;;;;;;;6.78;0.80;;;11.00;99.90;;;;;;5023997;28;20046;-63
2022/11/10 01:47:20;;;;;;;6.13;0.90;;;11.00;99.90;;;;;;5007166;28;20058;-62
2022/11/10 01:50:06;;;;;;;7.97;0.90;;;11.10;99.90;;;;;;5028365;28;20033;-61
2022/11/10 01:52:58;;;;;;;6.07;0.75;;;11.10;99.90;;;;;;5022956;28;20057;-63
2022/11/10 01:55:45;;;;;;;3.35;0.60;;;11.20;99.90;;;;;;5029241;28;20511;-65
2022/11/10 01:58:38;;;;;;;3.17;0.70;;;11.20;99.90;;;;;;5023729;28;20053;-64
2022/11/10 02:01:25;;;;;;;2.70;0.73;;;;;;;;;;5009628;28;20060;-62
2022/11/10 02:04:15;;;;;;;7.40;1.17;;;11.30;99.90;;;;;;5008440;28;20050;-61
2022/11/10 02:07:01;;;;;;;7.47;0.68;;;11.30;99.90;;;;;;5014178;28;20405;-61
2022/11/10 02:09:48;;;;;;;5.75;0.70;;;11.40;99.90;;;;;;5018313;28;20049;-60
2022/11/10 02:12:37;;;;;;;4.18;0.50;;;11.40;99.90;;;;;;5009206;28;20042;-59
2022/11/10 02:15:24;;;;;;;1.20;0.30;;;11.40;99.90;;;;;;5020008;28;20057;-60
2022/11/10 02:18:11;;;;;;;7.80;1.02;;;11.50;99.90;;;;;;5014009;28;20678;-60
2022/11/10 02:20:57;;;;;;;4.25;0.80;;;11.50;99.90;;;;;;5029196;28;20596;-66
2022/11/10 02:23:54;;;;;;;6.45;0.65;;;11.60;99.90;;;;;;5022906;28;20037;-69
2022/11/10 02:26:51;;;;;;;5.68;0.70;;;11.60;99.90;;;;;;5028593;28;20060;-59
2022/11/10 02:29:37;;;;;;;3.85;0.50;;;11.60;99.90;;;;;;5015410;28;20041;-63
2022/11/10 02:32:23;;;;;;;3.00;0.50;;;11.60;99.90;;;;;;5011258;28;20046;-72
2022/11/10 02:35:09;;;;;;;3.70;0.45;;;11.70;99.90;;;;;;5014277;28;20041;-73
2022/11/10 02:37:55;;;;;;;4.38;1.02;;;11.70;99.90;;;;;;5027054;28;20052;-72
2022/11/10 02:40:41;;;;;;;1.85;0.28;;;11.70;99.90;;;;;;5011428;28;20046;-72
2022/11/10 02:43:28;;;;;;;6.40;0.38;;;11.80;99.90;;;;;;5010547;28;20046;-70
2022/11/10 02:46:14;;;;;;;2.85;0.30;;;11.80;99.90;;;;;;5002636;28;20501;-73
2022/11/10 02:49:00;;;;;;;5.50;0.30;;;11.80;99.90;;;;;;5030548;28;20049;-71
2022/11/10 02:51:46;;;;;;;7.53;0.40;;;11.80;99.90;;;;;;5031538;28;20057;-72
2022/11/10 02:54:32;;;;;;;2.83;0.40;;;11.80;99.90;;;;;;5031614;28;20492;-73
2022/11/10 02:57:18;;;;;;;4.75;0.28;;;11.80;99.90;;;;;;5031723;28;20044;-73
2022/11/10 03:00:06;;;;;;;2.95;0.30;;;11.80;99.90;;;;;;5031475;28;20053;-74
2022/11/10 03:02:56;;;;;;;4.32;0.40;;;11.90;99.90;;;;;;5031445;28;20045;-73
2022/11/10 03:05:43;;;;;;;2.65;0.47;;;11.90;99.90;;;;;;5031285;28;20038;-72
2022/11/10 03:08:29;;;;;;;3.25;0.60;;;11.90;99.90;;;;;;5031641;28;20042;-70
2022/11/10 03:11:14;;;;;;;2.03;0.28;;;11.90;99.90;;;;;;5031677;28;20041;-63
2022/11/10 03:14:00;;;;;;;1.33;0.17;;;12.00;99.90;;;;;;5031130;28;20042;-61
2022/11/10 03:16:47;;;;;;;2.60;0.95;;;12.00;99.90;;;;;;5031211;28;20049;-62
2022/11/10 03:19:34;;;;;;;2.78;0.38;;;12.00;99.90;;;;;;5031366;28;20045;-60
2022/11/10 03:22:19;;;;;;;4.20;0.40;;;12.00;99.90;;;;;;5031325;28;20049;-60
2022/11/10 03:25:06;;;;;;;3.30;0.15;;;12.10;99.90;;;;;;5031297;28;20049;-59
2022/11/10 03:27:52;;;;;;;3.90;0.30;;;12.10;99.90;;;;;;5031243;28;20517;-62
2022/11/10 03:30:39;;;;;;;5.18;0.30;;;12.10;99.90;;;;;;5031180;28;20060;-61
2022/11/10 03:33:25;;;;;;;2.83;0.32;;;12.10;99.90;;;;;;5031159;28;20045;-62
2022/11/10 03:36:11;;;;;;;1.70;0.20;;;12.10;99.90;;;;;;5031101;28;20477;-62
2022/11/10 03:38:57;;;;;;;2.38;0.50;;;12.20;99.90;;;;;;5034305;28;20393;-62
2022/11/10 03:41:43;;;;;;;1.63;0.20;;;12.10;99.90;;;;;;5035291;28;20049;-62
2022/11/10 03:44:29;;;;;;;0.50;0.20;;;12.10;99.90;;;;;;5034186;28;20049;-61
2022/11/10 03:47:15;;;;;;;2.83;0.50;;;;;;;;;;5015240;28;20076;-64
2022/11/10 03:50:01;;;;;;;7.57;1.95;;;12.10;99.90;;;;;;5015287;28;20481;-60
2022/11/10 03:52:47;;;;;;;4.88;0.80;;;12.10;99.90;;;;;;5015324;28;20034;-60
2022/11/10 03:55:33;;;;;;;2.42;0.70;;;12.00;99.90;;;;;;5015200;28;20478;-67
2022/11/10 03:58:19;;;;;;;3.95;0.63;;;12.00;99.90;;;;;;5015125;28;20053;-65
2022/11/10 04:01:05;;;;;;;3.67;0.77;;;12.00;99.90;;;;;;5015103;28;20045;-62
2022/11/10 04:03:51;;;;;;;3.63;0.77;;;12.00;99.90;;;;;;5015137;28;20713;-61
2022/11/10 04:09:41;;;;;;;3.70;0.82;;;11.90;99.90;;;;;;5034572;28;20045;-64
2022/11/10 04:15:42;;;;;;;3.08;0.77;;;11.90;99.90;;;;;;5029730;28;20068;-62
2022/11/10 04:18:28;;;;;;;3.00;0.32;;;11.90;99.90;;;;;;5014851;28;20037;-65
2022/11/10 04:21:14;;;;;;;6.55;0.50;;;11.90;99.90;;;;;;5014659;28;20049;-62
2022/11/10 04:24:01;;;;;;;4.35;0.68;;;11.90;99.90;;;;;;5014621;28;20049;-69
2022/11/10 04:26:47;;;;;;;4.28;0.77;;;11.90;99.90;;;;;;5033735;28;20037;-62
2022/11/10 04:29:33;;;;;;;3.47;0.40;;;11.90;99.90;;;;;;5034259;28;20052;-62
2022/11/10 04:32:19;;;;;;;2.05;0.32;;;11.90;99.90;;;;;;5034226;28;20048;-64
2022/11/10 04:35:05;;;;;;;0.93;0.20;;;11.90;99.90;;;;;;5034199;28;20046;-71
2022/11/10 04:37:52;;;;;;;1.48;0.52;;;11.90;99.90;;;;;;5034079;28;20405;-61
2022/11/10 04:40:38;;;;;;;1.00;0.20;;;11.90;99.90;;;;;;5034127;28;20048;-66
2022/11/10 04:43:24;;;;;;;0.50;0.10;;;12.00;99.90;;;;;;5034148;28;20049;-70
2022/11/10 04:46:32;;;;;;;2.63;0.40;;;12.10;99.90;;;;;;5032054;28;20049;-71
2022/11/10 04:49:19;;;;;;;2.60;0.30;;;12.10;99.90;;;;;;5033742;28;20100;-76
2022/11/10 04:52:04;;;;;;;1.65;0.30;;;12.20;99.90;;;;;;5034018;28;20044;-60
2022/11/10 04:54:51;;;;;;;1.00;0.08;;;12.20;99.90;;;;;;5033811;28;20049;-61
2022/11/10 04:57:37;;;;;;;0.50;0.10;;;12.30;99.90;;;;;;5033719;28;20489;-63
2022/11/10 05:00:23;;;;;;;1.15;0.10;;;12.30;99.90;;;;;;5033588;28;20049;-71
2022/11/10 05:03:10;;;;;;;1.02;0.20;;;12.30;99.90;;;;;;5033737;28;20042;-71
2022/11/10 05:05:57;;;;;;;1.23;0.20;;;12.30;99.90;;;;;;5033614;28;20042;-71
2022/11/10 05:08:43;;;;;;;1.15;0.20;;;12.30;99.90;;;;;;5014000;28;20043;-61
2022/11/10 05:11:30;;;;;;;2.95;0.20;;;12.30;99.90;;;;;;5013876;28;20042;-71
2022/11/10 05:14:15;;;;;;;2.53;0.22;;;12.30;99.90;;;;;;5013555;28;20042;-67
2022/11/10 05:17:01;;;;;;;3.50;0.30;;;12.30;99.90;;;;;;5028445;28;20516;-75
2022/11/10 05:19:47;;;;;;;2.05;0.32;;;12.20;99.90;;;;;;5033290;28;20053;-75
2022/11/10 05:22:33;;;;;;;3.42;0.47;;;12.20;99.90;;;;;;5033328;28;20049;-73
2022/11/10 05:25:19;;;;;;;2.60;0.60;;;12.20;99.90;;;;;;5033270;28;20045;-74
2022/11/10 05:28:08;;;;;;;5.05;0.60;;;12.20;99.90;;;;;;5033224;28;20049;-74
2022/11/10 05:30:54;;;;;;;3.75;0.52;;;12.20;99.90;;;;;;5033039;28;20397;-73
2022/11/10 05:33:40;;;;;;;2.30;0.30;;;12.10;99.90;;;;;;5030327;28;20042;-71
2022/11/10 05:36:26;;;;;;;3.50;0.38;;;12.10;99.90;;;;;;5029212;28;20046;-69
2022/11/10 05:39:13;;;;;;;2.60;0.57;;;12.10;99.90;;;;;;5013449;28;20034;-76
2022/11/10 05:41:59;;;;;;;1.23;0.50;;;12.20;99.90;;;;;;5013107;28;20034;-75
2022/11/10 05:44:45;;;;;;;4.47;0.50;;;12.20;99.90;;;;;;5013224;28;20046;-75
2022/11/10 05:47:31;;;;;;;1.15;0.43;;;12.10;99.90;;;;;;5010121;28;20060;-75
2022/11/10 05:50:19;;;;;;;0.63;0.20;;;12.20;99.90;;;;;;5009538;28;20049;-73
2022/11/10 05:53:05;;;;;;;1.83;0.30;;;12.20;99.90;;;;;;5018742;28;20512;-66
2022/11/10 05:55:51;;;;;;;2.80;0.38;;;12.20;99.90;;;;;;5029141;28;20044;-65
2022/11/10 05:58:37;;;;;;;1.55;0.20;;;12.20;99.90;;;;;;5029154;28;20045;-61
2022/11/10 06:01:24;;;;;;;0.55;0.20;;;12.30;99.90;;;;;;5027778;28;20053;-62
2022/11/10 06:04:10;;;;;;;2.20;0.93;;;12.30;99.90;;;;;;5017359;28;20045;-65
2022/11/10 06:06:57;;;;;;;1.25;0.28;;;12.30;99.90;;;;;;5026228;28;20084;-62
2022/11/10 06:09:47;;;;;;;2.03;0.28;;;12.30;99.90;;;;;;5029324;28;20060;-60
2022/11/10 06:12:33;;;;;;;1.15;0.15;;;12.30;99.90;;;;;;5013573;28;20053;-61
2022/11/10 06:15:21;;;;;;;0.38;0.10;;;12.30;99.90;;;;;;5006036;28;20077;-66
2022/11/10 06:18:07;;;;;;;0.82;0.28;;;12.30;99.90;;;;;;5012243;28;20655;-63
2022/11/10 06:20:53;;;;;;;3.67;0.50;;;12.30;99.90;;;;;;5025575;28;20362;-62
2022/11/10 06:23:39;;;;;;;1.92;0.20;;;12.30;99.90;;;;;;5024126;28;20048;-61
2022/11/10 06:26:26;;;;;;;1.98;0.20;;;12.30;99.90;;;;;;5025492;28;20037;-65
2022/11/10 06:29:12;;;;;;;1.88;0.20;;;12.30;99.90;;;;;;5025199;28;20057;-61
2022/11/10 06:31:59;;;;;;;2.63;0.40;;;12.40;99.90;;;;;;5027027;28;20037;-61
2022/11/10 06:34:45;;;;;;;4.38;0.30;;;12.40;99.90;;;;;;5025256;28;20038;-66
2022/11/10 06:37:30;;;;;;;3.67;0.70;;;12.40;99.90;;;;;;5025160;28;20505;-61
2022/11/10 06:40:17;;;;;;;0.55;0.30;;;12.40;99.90;;;;;;5025345;28;20515;-63
2022/11/10 06:43:04;;;;;;;2.78;0.40;;;12.50;99.90;;;;;;5024587;28;20128;-68
2022/11/10 06:45:52;;;;;;;5.20;0.32;;;12.50;99.90;;;;;;5025511;28;20406;-67
2022/11/10 06:48:39;;;;;;;5.80;0.22;;;12.50;99.90;;;;;;5019333;28;20045;-64
2022/11/10 06:51:25;;;;;;;1.45;0.45;;;12.50;99.90;;;;;;5007087;28;20377;-62
2022/11/10 06:54:12;;;;;;;1.25;0.20;;;12.50;99.90;;;;;;5024535;28;20045;-60
2022/11/10 06:56:57;;;;;;;3.38;0.77;;;12.50;99.90;;;;;;5027390;28;20045;-60
2022/11/10 06:59:44;;;;;;;3.95;0.30;;;12.50;99.90;;;;;;5028268;28;20052;-62
2022/11/10 07:02:30;;;;;;;1.20;0.30;;;12.50;99.90;;;;;;5024978;28;20057;-67
2022/11/10 07:05:16;;;;;;;1.30;0.30;;;12.50;99.90;;;;;;5015674;28;20084;-70
2022/11/10 07:08:15;;;;;;;3.85;0.50;;;12.50;99.90;;;;;;5027730;28;20041;-71
2022/11/10 07:11:00;;;;;;;4.07;0.70;;;12.50;99.90;;;;;;5028301;28;20049;-64
2022/11/10 07:13:47;;;;;;;2.28;0.77;;;12.50;99.90;;;;;;5027447;28;20057;-63
2022/11/10 07:16:33;;;;;;;2.72;0.47;;;12.50;99.90;;;;;;5027762;28;20405;-68
2022/11/10 07:19:20;;;;;;;5.63;1.92;;;12.50;99.90;;;;;;5026586;28;20397;-68
2022/11/10 07:22:06;;;;;;;3.67;0.77;;;12.50;99.90;;;;;;5025458;28;20392;-63
2022/11/10 07:24:56;;;;;;;;;;;12.50;99.90;;;;;;5025841;28;20068;-63
2022/11/10 07:27:42;;;;;;;3.15;0.93;;;12.50;99.90;;;;;;5025277;28;20365;-62
2022/11/10 07:30:30;;;;;;;1.83;0.55;;;12.50;99.90;;;;;;5010166;28;20050;-61
2022/11/10 07:33:16;;;;;;;1.52;0.50;;;12.60;99.90;;;;;;5016853;28;20050;-72
2022/11/10 07:36:03;;;;;;;3.33;0.50;;;12.50;99.90;;;;;;5007976;28;20054;-64
2022/11/10 07:38:49;;;;;;;2.53;0.40;;;12.50;99.90;;;;;;5024439;28;20489;-61
2022/11/10 07:41:36;;;;;;;2.45;1.45;;;12.50;99.90;;;;;;5013281;28;20046;-62
2022/11/10 07:44:21;;;;;;;6.57;0.80;;;12.60;99.90;;;;;;5007708;28;20489;-64
2022/11/10 07:47:08;;;;;;;4.78;0.47;;;12.60;99.90;;;;;;5008909;28;20493;-61
2022/11/10 07:49:54;;;;;;;4.45;0.75;;;12.60;99.90;;;;;;5010854;28;20049;-61
2022/11/10 07:52:40;;;;;;;0.65;0.45;;;12.60;99.90;;;;;;5012756;28;20401;-63
2022/11/10 07:55:27;;;;;;;1.83;0.40;;;12.60;99.90;;;;;;5017260;28;20409;-70
2022/11/10 07:58:16;;;;;;;2.60;0.60;;;12.60;99.90;;;;;;5011616;28;20069;-64
2022/11/10 08:01:02;;;;;;;6.43;0.40;;;12.70;99.90;;;;;;5005684;28;20382;-64
2022/11/10 08:03:48;;;;;;;1.48;0.17;;;12.80;99.90;;;;;;5018528;28;20053;-76
2022/11/10 08:06:35;;;;;;;1.10;0.45;;;12.80;99.90;;;;;;5015047;28;20041;-75
2022/11/10 08:09:21;;;;;;;0.73;0.13;;;12.80;99.90;;;;;;5007991;28;20050;-73
2022/11/10 08:12:08;;;;;;;0.28;0.17;;;12.90;99.90;;;;;;5009612;28;20037;-76
2022/11/10 08:14:55;;;;;;;1.88;0.32;;;13.00;99.90;;;;;;5008202;28;20050;-73
2022/11/10 08:17:41;;;;;;;1.52;0.30;;;13.00;99.90;;;;;;5011143;28;20041;-76
2022/11/10 08:20:28;;;;;;;1.90;0.40;;;13.00;99.90;;;;;;5016109;28;20034;-66
2022/11/10 08:23:14;;;;;;;3.88;0.20;;;13.10;99.90;;;;;;5023031;28;20052;-62
2022/11/10 08:26:01;;;;;;;0.50;0.20;;;13.10;99.90;;;;;;5015044;28;20044;-64
2022/11/10 08:28:47;;;;;;;1.95;0.45;;;13.10;99.90;;;;;;5018366;28;20038;-62
2022/11/10 08:31:33;;;;;;;3.38;0.80;;;13.20;99.90;;;;;;5017164;28;20409;-62
2022/11/10 08:34:21;;;;;;;1.13;0.28;;;13.30;99.90;;;;;;5021612;28;20053;-62
2022/11/10 08:37:07;;;;;;;1.38;0.25;;;13.30;99.90;;;;;;5021356;28;20481;-62
2022/11/10 08:39:53;;;;;;;0.98;0.22;;;13.30;99.90;;;;;;5022159;28;20041;-62
2022/11/10 08:42:39;;;;;;;3.28;0.40;;;13.40;99.90;;;;;;5016804;28;20053;-62
2022/11/10 08:45:26;;;;;;;2.58;0.30;;;13.40;99.90;;;;;;5010101;28;20057;-61
2022/11/10 08:48:18;;;;;;;1.48;0.60;;;13.40;99.90;;;;;;5010657;28;20046;-61
2022/11/10 08:51:04;;;;;;;5.93;0.60;;;13.40;99.90;;;;;;5009204;28;20048;-63
2022/11/10 08:53:51;;;;;;;2.80;0.82;;;13.30;99.90;;;;;;5019668;28;20054;-62
2022/11/10 08:56:38;;;;;;;3.00;0.52;;;13.30;99.90;;;;;;5016839;28;20397;-70
2022/11/10 08:59:25;;;;;;;2.58;0.57;;;13.30;99.90;;;;;;5011076;28;20049;-64
2022/11/10 09:02:11;;;;;;;2.78;0.50;;;13.30;99.90;;;;;;5020375;28;20042;-62
2022/11/10 09:04:57;;;;;;;2.28;0.30;;;13.40;99.90;;;;;;5010462;28;20052;-61
2022/11/10 09:07:45;;;;;;;1.77;0.45;;;13.40;99.90;;;;;;5020408;28;20045;-61
2022/11/10 09:10:34;;;;;;;1.05;0.20;;;13.40;99.90;;;;;;5010529;28;20069;-61
2022/11/10 09:13:20;;;;;;;0.80;0.20;;;13.40;99.90;;;;;;5014089;28;20041;-62
2022/11/10 09:16:14;;;;;;;3.03;0.43;;;13.40;99.90;;;;;;5012377;28;20042;-62
2022/11/10 09:19:00;;;;;;;1.02;0.20;;;13.50;99.90;;;;;;5015192;28;20077;-59
2022/11/10 09:21:47;;;;;;;4.00;0.30;;;13.50;99.90;;;;;;5014071;28;20041;-59
2022/11/10 09:24:34;;;;;;;1.92;0.30;;;13.60;99.90;;;;;;5012043;28;20034;-59
2022/11/10 09:27:21;;;;;;;0.40;0.08;;;13.60;99.90;;;;;;5017190;28;20037;-61
2022/11/10 09:30:08;;;;;;;0.60;0.13;;;13.70;99.90;;;;;;5027206;28;20510;-62
2022/11/10 09:33:02;;;;;;;0.20;0.10;;;13.70;99.90;;;;;;5029534;28;20037;-59
2022/11/10 09:35:48;;;;;;;1.02;0.20;;;13.70;99.90;;;;;;5016762;28;20050;-71
2022/11/10 09:38:34;;;;;;;0.47;0.08;;;13.80;99.90;;;;;;5013307;28;20298;-65
2022/11/10 09:41:21;;;;;;;0.55;0.35;;;13.80;99.90;;;;;;5015907;28;20513;-61
2022/11/10 09:44:24;;;;;;;1.70;0.50;;;13.80;99.90;;;;;;5015398;28;20046;-61
2022/11/10 09:47:18;;;;;;;2.05;0.57;;;13.80;99.90;;;;;;5016113;28;20050;-65
2022/11/10 09:50:45;;;;;;;1.30;0.40;;;13.80;99.90;;;;;;5014431;28;20049;-70
2022/11/10 09:53:58;;;;;;;1.02;0.55;;;13.80;99.90;;;;;;5014719;28;20057;-76
2022/11/10 09:56:44;;;;;;;0.35;0.20;;;13.80;99.90;;;;;;5011437;28;20065;-71
2022/11/10 09:59:32;;;;;;;1.23;0.20;;;13.80;99.90;;;;;;5020624;28;20440;-76
2022/11/10 10:02:36;;;;;;;1.90;0.20;;;13.80;99.90;;;;;;5011852;28;20512;-61
2022/11/10 10:05:38;;;;;;;0.57;0.40;;;13.80;99.90;;;;;;5011275;28;20045;-61
2022/11/10 10:08:46;;;;;;;1.95;0.30;;;13.90;99.90;;;;;;5018296;28;20056;-64
2022/11/10 10:12:01;;;;;;;2.50;0.30;;;13.90;99.90;;;;;;5008743;28;20535;-62
2022/11/10 10:15:07;;;;;;;0.20;0.20;;;13.90;99.90;;;;;;5005802;28;20060;-63
2022/11/10 10:17:56;;;;;;;0.10;0.03;;;13.90;99.90;;;;;;5019402;28;20073;-62
2022/11/10 10:21:19;;;;;;;1.02;0.10;;;14.00;99.90;;;;;;5021733;28;20054;-73
2022/11/10 10:24:12;;;;;;;0.90;0.10;;;14.00;99.90;;;;;;5021532;28;20052;-64
2022/11/10 10:27:14;;;;;;;4.43;0.10;;;13.90;99.90;;;;;;5021699;28;20113;-69
2022/11/10 10:30:04;;;;;;;0.43;0.00;;;14.00;99.90;;;;;;5009200;28;20045;-63
2022/11/10 10:32:59;;;;;;;0.45;0.10;;;14.00;99.90;;;;;;5005935;28;20053;-74
2022/11/10 10:35:47;;;;;;;0.95;0.10;;;14.10;99.90;;;;;;5006393;28;20053;-75
2022/11/10 10:38:38;;;;;;;2.08;0.10;;;14.10;99.90;;;;;;5007613;28;20547;-75
2022/11/10 10:41:26;;;;;;;0.30;0.03;;;14.10;99.90;;;;;;5014490;28;20042;-62
2022/11/10 10:44:16;;;;;;;2.72;0.10;;;14.10;99.90;;;;;;5016389;28;20403;-60
2022/11/10 10:47:03;;;;;;;0.50;0.10;;;14.10;99.90;;;;;;5011023;28;20429;-60
2022/11/10 10:49:49;;;;;;;0.10;0.10;;;14.20;99.90;;;;;;5007120;28;20054;-60
2022/11/10 10:52:36;;;;;;;3.03;0.10;;;14.10;99.90;;;;;;4996904;28;20046;-60
2022/11/10 10:55:27;;;;;;;0.70;0.00;;;14.20;99.90;;;;;;5007355;28;20512;-60
2022/11/10 10:58:24;;;;;;;0.30;0.10;;;14.20;99.90;;;;;;5024316;28;20049;-60
2022/11/10 11:01:14;;;;;;;0.40;0.00;;;14.20;99.90;;;;;;5012471;28;20063;-60
2022/11/10 11:04:24;;;;;;;2.58;0.10;;;14.30;99.90;;;;;;5012231;28;20042;-60
2022/11/10 11:07:21;;;;;;;0.68;0.13;;;14.30;99.90;;;;;;5008325;28;20046;-60
2022/11/10 11:10:20;;;;;;;1.75;0.20;;;14.30;99.90;;;;;;5011591;28;20071;-59
2022/11/10 11:13:26;;;;;;;0.65;0.10;;;14.50;99.90;;;;;;5016716;28;20056;-60
2022/11/10 11:16:12;;;;;;;0.20;0.00;;;14.50;99.90;;;;;;5025296;28;20041;-60
2022/11/10 11:18:59;;;;;;;1.50;1.00;;;14.50;99.90;;;;;;5015118;28;20038;-59
2022/11/10 11:22:15;;;;;;;0.10;0.00;;;14.50;99.90;;;;;;5008680;28;20042;-60
2022/11/10 11:25:10;;;;;;;0.43;0.10;;;14.50;99.90;;;;;;5008607;28;20042;-60
2022/11/10 11:28:25;;;;;;;0.22;0.10;;;14.50;99.90;;;;;;5006753;28;20053;-60
2022/11/10 11:31:23;;;;;;;0.90;0.20;;;14.60;99.90;;;;;;5008600;28;20049;-74
2022/11/10 11:34:28;;;;;;;0.47;0.20;;;14.60;99.90;;;;;;5005579;28;20584;-67
2022/11/10 11:37:46;;;;;;;0.57;0.10;;;14.60;99.90;;;;;;5006698;28;20042;-69
2022/11/10 11:40:52;;;;;;;0.10;0.10;;;14.60;99.90;;;;;;5007039;28;20077;-73
2022/11/10 11:43:53;;;;;;;0.30;0.10;;;14.60;99.90;;;;;;5018734;28;21599;-63
2022/11/10 11:47:02;;;;;;;0.85;0.20;;;14.60;99.90;;;;;;5010059;28;20042;-70
2022/11/10 11:50:12;;;;;;;0.85;0.10;;;14.70;99.90;;;;;;5019274;28;20072;-74
2022/11/10 11:53:10;;;;;;;1.42;0.20;;;14.70;99.90;;;;;;5026309;28;20034;-63
2022/11/10 11:56:12;;;;;;;0.82;0.10;;;14.60;99.90;;;;;;5027799;28;20041;-74
2022/11/10 11:59:22;;;;;;;6.22;0.30;;;14.70;99.90;;;;;;5024563;28;20050;-68
2022/11/10 12:02:45;;;;;;;0.45;0.10;;;14.80;99.90;;;;;;5011919;28;20046;-72
2022/11/10 12:06:17;;;;;;;0.00;0.00;;;14.80;99.90;;;;;;5011141;28;20038;-68
2022/11/10 12:09:26;;;;;;;0.60;0.10;;;14.90;99.90;;;;;;5015775;28;20060;-68
2022/11/10 12:12:18;;;;;;;0.40;0.00;;;14.90;99.90;;;;;;5025840;28;20041;-72
2022/11/10 12:15:07;;;;;;;0.98;0.50;;;14.90;99.90;;;;;;5011826;28;20050;-71
2022/11/10 12:18:30;;;;;;;0.30;0.10;;;14.80;99.90;;;;;;5014907;28;20056;-69
2022/11/10 12:21:28;;;;;;;1.65;0.30;;;14.80;99.90;;;;;;5018488;28;20421;-69
2022/11/10 12:25:05;;;;;;;1.02;0.28;;;14.80;99.90;;;;;;5018776;28;20478;-71
2022/11/10 12:28:08;;;;;;;0.77;0.10;;;14.70;99.90;;;;;;5028205;28;20473;-66
2022/11/10 12:30:58;;;;;;;1.73;0.13;;;14.70;99.90;;;;;;5012934;28;20054;-71
2022/11/10 12:33:50;;;;;;;0.10;0.10;;;14.70;99.90;;;;;;5028160;28;20041;-75
2022/11/10 12:36:37;;;;;;;2.20;0.20;;;14.70;99.90;;;;;;5030844;28;20053;-61
2022/11/10 12:39:40;;;;;;;0.10;0.03;;;14.70;99.90;;;;;;5027103;28;20045;-76
2022/11/10 12:42:28;;;;;;;0.55;0.10;;;14.80;99.90;;;;;;5030605;28;20053;-62
2022/11/10 12:45:41;;;;;;;0.40;0.10;;;14.80;99.90;;;;;;5026407;28;20313;-72
2022/11/10 12:48:39;;;;;;;2.00;0.10;;;14.80;99.90;;;;;;5029557;28;20049;-74
2022/11/10 12:51:34;;;;;;;0.10;0.03;;;14.80;99.90;;;;;;5026725;28;20052;-71
2022/11/10 12:54:25;;;;;;;0.52;0.25;;;14.80;99.90;;;;;;5012265;28;20053;-75
2022/11/10 12:57:23;;;;;;;1.38;0.20;;;14.80;99.90;;;;;;5010545;28;20053;-74
2022/11/10 13:00:29;;;;;;;3.20;0.95;;;14.80;99.90;;;;;;5010858;28;20049;-74
2022/11/10 13:03:34;;;;;;;0.77;0.20;;;14.90;99.90;;;;;;5015463;28;20033;-74
2022/11/10 13:06:25;;;;;;;3.10;1.48;;;14.80;99.90;;;;;;5012751;28;20038;-65
2022/11/10 13:09:50;;;;;;;2.10;0.20;;;14.90;99.90;;;;;;5015495;28;20045;-60
2022/11/10 13:12:56;;;;;;;2.60;0.60;;;14.90;99.90;;;;;;5004551;28;20375;-63
2022/11/10 13:15:42;;;;;;;0.80;0.20;;;14.90;99.90;;;;;;5003072;28;20049;-61
2022/11/10 13:18:29;;;;;;;0.55;0.15;;;14.90;99.90;;;;;;5019653;28;20504;-69
2022/11/10 13:21:15;;;;;;;3.10;0.15;;;14.90;99.90;;;;;;5011330;28;20053;-69
2022/11/10 13:24:01;;;;;;;3.85;0.20;;;14.90;99.90;;;;;;5017734;28;20045;-60
2022/11/10 13:26:51;;;;;;;0.28;0.17;;;15.00;99.90;;;;;;5009037;28;20038;-60
2022/11/10 13:29:46;;;;;;;0.30;0.30;;;15.00;99.90;;;;;;5014824;28;20046;-65
2022/11/10 13:32:33;;;;;;;6.32;2.60;;;15.00;99.90;;;;;;5016158;28;20056;-67
2022/11/10 13:35:28;;;;;;;1.15;0.60;;;15.00;99.90;;;;;;5009989;28;20740;-67
2022/11/10 13:38:42;;;;;;;0.10;0.10;;;15.10;99.90;;;;;;5026581;28;20048;-65
2022/11/10 13:41:32;;;;;;;5.43;1.02;;;15.10;99.90;;;;;;5026858;28;20053;-61
2022/11/10 13:44:34;;;;;;;2.20;0.13;;;15.10;99.90;;;;;;5025000;28;20041;-66
2022/11/10 13:47:44;;;;;;;1.00;0.50;;;15.10;99.90;;;;;;5010382;28;20046;-63
2022/11/10 13:50:49;;;;;;;0.10;0.10;;;15.20;99.90;;;;;;5012416;28;20518;-65
2022/11/10 13:54:05;;;;;;;1.52;0.10;;;15.20;99.90;;;;;;5025524;28;20049;-61
2022/11/10 13:57:13;;;;;;;1.67;0.10;;;15.10;99.90;;;;;;5019613;28;20061;-62
2022/11/10 14:00:05;;;;;;;0.55;0.32;;;15.20;99.90;;;;;;5011468;28;20052;-61
2022/11/10 14:02:54;;;;;;;1.05;0.08;;;15.10;99.90;;;;;;5014921;28;20049;-61
2022/11/10 14:05:55;;;;;;;3.25;0.28;;;15.20;99.90;;;;;;5020521;28;20061;-62
2022/11/10 14:09:05;;;;;;;1.08;0.10;;;15.30;99.90;;;;;;5020300;28;20045;-64
2022/11/10 14:11:57;;;;;;;2.22;0.10;;;15.40;99.90;;;;;;5009792;28;20042;-62
2022/11/10 14:14:46;;;;;;;1.17;0.20;;;15.40;99.90;;;;;;5009117;28;20521;-70
2022/11/10 14:17:45;;;;;;;0.80;0.50;;;15.40;99.90;;;;;;5012455;28;20045;-67
2022/11/10 14:20:42;;;;;;;0.20;0.10;;;15.40;99.90;;;;;;5009260;28;20052;-60
2022/11/10 14:23:28;;;;;;;0.40;0.10;;;15.30;99.90;;;;;;5011916;28;20057;-68
2022/11/10 14:26:29;;;;;;;0.32;0.10;;;15.30;99.90;;;;;;5008257;28;20046;-60
2022/11/10 14:29:29;;;;;;;1.10;0.10;;;15.20;99.90;;;;;;5021256;28;20044;-60
2022/11/10 14:32:20;;;;;;;0.08;0.00;;;15.20;99.90;;;;;;5004295;28;20058;-60
2022/11/10 14:35:18;;;;;;;0.55;0.10;;;15.10;99.90;;;;;;5025986;28;20037;-63
2022/11/10 14:38:12;;;;;;;0.25;0.10;;;15.00;99.90;;;;;;5022468;28;20034;-66
2022/11/10 14:41:05;;;;;;;2.03;0.43;;;15.00;99.90;;;;;;5015912;28;20048;-60
2022/11/10 14:44:01;;;;;;;2.28;0.32;;;14.90;99.90;;;;;;5028233;28;20033;-60
2022/11/10 14:46:47;;;;;;;1.33;0.20;;;14.90;99.90;;;;;;5027109;28;20045;-64
2022/11/10 14:49:33;;;;;;;3.40;1.70;;;14.90;99.90;;;;;;5020547;28;20049;-61
2022/11/10 14:52:21;;;;;;;1.30;0.50;;;14.80;99.90;;;;;;5009054;28;20042;-69
2022/11/10 14:55:18;;;;;;;1.40;0.35;;;14.80;99.90;;;;;;5017366;28;20045;-60
2022/11/10 14:58:13;;;;;;;0.75;0.63;;;14.70;99.90;;;;;;5017587;28;20061;-71
2022/11/10 15:01:04;;;;;;;1.05;0.20;;;14.70;99.90;;;;;;5012624;28;20049;-67